Time,TemperatureF,DewpointF,PressureIn,WindDirection,WindDirectionDegrees,WindSpeedMPH,WindSpeedGustMPH,Humidity,HourlyPrecipIn,Conditions,Clouds,dailyrainin,SoftwareType,DateUTC
2013-03-20 00:03:00,34.0,9.0,29.96,NW,315,9.0,17.0,34,0.00,,,0.00,,2013-03-20 04:03:00,
2013-03-20 00:12:00,34.0,9.0,29.96,NW,315,9.0,17.0,34,0.00,,,0.00,,2013-03-20 04:12:00,
2013-03-20 00:23:00,34.0,10.0,29.96,North,350,5.0,15.0,36,0.00,,,0.00,,2013-03-20 04:23:00,
2013-03-20 00:32:00,34.0,10.0,29.96,North,350,6.0,12.0,36,0.00,,,0.00,,2013-03-20 04:32:00,
2013-03-20 00:43:00,34.0,10.0,29.96,North,350,6.0,12.0,36,0.00,,,0.00,,2013-03-20 04:43:00,
2013-03-20 00:53:00,34.0,10.0,29.96,NNW,340,5.0,19.0,36,0.00,,,0.00,,2013-03-20 04:53:00,
2013-03-20 01:03:00,33.0,10.0,29.96,North,350,7.0,13.0,37,0.00,,,0.00,,2013-03-20 05:03:00,
2013-03-20 01:13:00,33.0,10.0,29.96,NW,317,6.0,15.0,37,0.00,,,0.00,,2013-03-20 05:13:00,
2013-03-20 01:23:00,33.0,10.0,29.96,NW,317,6.0,15.0,37,0.00,,,0.00,,2013-03-20 05:23:00,
2013-03-20 01:32:00,33.0,11.0,29.96,NW,312,6.0,17.0,39,0.00,,,0.00,,2013-03-20 05:32:00,
2013-03-20 01:42:00,33.0,11.0,29.96,NW,312,6.0,17.0,39,0.00,,,0.00,,2013-03-20 05:42:00,
2013-03-20 01:53:00,32.0,10.0,29.94,NNW,338,7.0,14.0,40,0.00,,,0.00,,2013-03-20 05:53:00,
2013-03-20 02:03:00,32.0,10.0,29.94,North,355,8.0,15.0,39,0.00,,,0.00,,2013-03-20 06:03:00,
2013-03-20 02:12:00,32.0,10.0,29.94,North,355,8.0,15.0,39,0.00,,,0.00,,2013-03-20 06:12:00,
2013-03-20 02:22:00,32.0,10.0,29.93,NW,306,9.0,16.0,40,0.00,,,0.00,,2013-03-20 06:22:00,
2013-03-20 02:32:00,32.0,10.0,29.93,NNW,333,9.0,15.0,39,0.00,,,0.00,,2013-03-20 06:32:00,
2013-03-20 02:42:00,32.0,10.0,29.93,NNW,333,9.0,15.0,39,0.00,,,0.00,,2013-03-20 06:42:00,
2013-03-20 02:53:00,32.0,9.0,29.93,NNE,19,9.0,16.0,37,0.00,,,0.00,,2013-03-20 06:53:00,
2013-03-20 03:02:00,32.0,9.0,29.93,NNW,336,6.0,17.0,38,0.00,,,0.00,,2013-03-20 07:02:00,
2013-03-20 03:12:00,32.0,9.0,29.93,NNW,336,6.0,17.0,38,0.00,,,0.00,,2013-03-20 07:12:00,
2013-03-20 03:22:00,32.0,8.0,29.93,NNW,345,7.0,13.0,36,0.00,,,0.00,,2013-03-20 07:22:00,
2013-03-20 03:32:00,31.0,8.0,29.92,NNW,332,7.0,13.0,38,0.00,,,0.00,,2013-03-20 07:32:00,
2013-03-20 03:42:00,31.0,8.0,29.92,NNW,332,7.0,13.0,38,0.00,,,0.00,,2013-03-20 07:42:00,
2013-03-20 03:52:00,31.0,8.0,29.91,NNW,328,7.0,16.0,37,0.00,,,0.00,,2013-03-20 07:52:00,
2013-03-20 04:02:00,31.0,8.0,29.91,North,355,5.0,11.0,37,0.00,,,0.00,,2013-03-20 08:02:00,
2013-03-20 04:12:00,31.0,8.0,29.91,North,355,5.0,11.0,37,0.00,,,0.00,,2013-03-20 08:12:00,
2013-03-20 04:22:00,31.0,7.0,29.89,NW,320,6.0,13.0,36,0.00,,,0.00,,2013-03-20 08:22:00,
2013-03-20 04:32:00,31.0,8.0,29.89,North,5,7.0,15.0,37,0.00,,,0.00,,2013-03-20 08:32:00,
2013-03-20 04:42:00,31.0,8.0,29.89,North,5,7.0,15.0,37,0.00,,,0.00,,2013-03-20 08:42:00,
2013-03-20 04:52:00,30.0,7.0,29.89,NNW,347,6.0,15.0,37,0.00,,,0.00,,2013-03-20 08:52:00,
2013-03-20 05:02:00,30.0,8.0,29.89,NNW,345,7.0,13.0,38,0.00,,,0.00,,2013-03-20 09:02:00,
2013-03-20 05:12:00,30.0,8.0,29.89,NNW,345,7.0,13.0,38,0.00,,,0.00,,2013-03-20 09:12:00,
2013-03-20 05:22:00,30.0,5.0,29.89,NW,321,9.0,16.0,34,0.00,,,0.00,,2013-03-20 09:22:00,
2013-03-20 05:33:00,30.0,5.0,29.89,North,360,6.0,17.0,34,0.00,,,0.00,,2013-03-20 09:33:00,
2013-03-20 05:43:00,30.0,5.0,29.89,North,360,6.0,17.0,34,0.00,,,0.00,,2013-03-20 09:43:00,
2013-03-20 05:53:00,30.0,3.0,29.88,NNW,336,8.0,16.0,31,0.00,,,0.00,,2013-03-20 09:53:00,
2013-03-20 06:03:00,30.0,6.0,29.89,NNW,346,7.0,13.0,36,0.00,,,0.00,,2013-03-20 10:03:00,
2013-03-20 06:13:00,30.0,6.0,29.89,NNW,346,7.0,13.0,36,0.00,,,0.00,,2013-03-20 10:13:00,
2013-03-20 06:23:00,30.0,2.0,29.89,NNW,339,6.0,14.0,30,0.00,,,0.00,,2013-03-20 10:23:00,
2013-03-20 06:33:00,29.0,4.0,29.90,NNW,342,6.0,18.0,34,0.00,,,0.00,,2013-03-20 10:33:00,
2013-03-20 06:43:00,29.0,4.0,29.90,NNW,342,6.0,18.0,34,0.00,,,0.00,,2013-03-20 10:43:00,
2013-03-20 06:53:00,29.0,5.0,29.92,NNW,342,7.0,14.0,35,0.00,,,0.00,,2013-03-20 10:53:00,
2013-03-20 07:03:00,29.0,5.0,29.92,NNW,335,7.0,10.0,36,0.00,,,0.00,,2013-03-20 11:03:00,
2013-03-20 07:12:00,29.0,5.0,29.92,NNW,335,7.0,10.0,36,0.00,,,0.00,,2013-03-20 11:12:00,
2013-03-20 07:22:00,29.0,4.0,29.92,NNW,331,7.0,17.0,34,0.00,,,0.00,,2013-03-20 11:22:00,
2013-03-20 07:32:00,29.0,5.0,29.92,NW,324,4.0,17.0,36,0.00,,,0.00,,2013-03-20 11:32:00,
2013-03-20 07:42:00,29.0,5.0,29.92,NW,324,4.0,17.0,36,0.00,,,0.00,,2013-03-20 11:42:00,
2013-03-20 07:52:00,29.0,5.0,29.92,NNW,345,5.0,16.0,36,0.00,,,0.00,,2013-03-20 11:52:00,
2013-03-20 08:02:00,28.0,6.0,29.93,North,355,7.0,13.0,38,0.00,,,0.00,,2013-03-20 12:02:00,
2013-03-20 08:12:00,28.0,6.0,29.93,North,355,7.0,13.0,38,0.00,,,0.00,,2013-03-20 12:12:00,
2013-03-20 08:22:00,29.0,7.0,29.94,North,355,5.0,10.0,38,0.00,,,0.00,,2013-03-20 12:22:00,
2013-03-20 08:32:00,29.0,7.0,29.94,NW,315,7.0,12.0,38,0.00,,,0.00,,2013-03-20 12:32:00,
2013-03-20 08:42:00,29.0,7.0,29.94,NW,315,7.0,12.0,38,0.00,,,0.00,,2013-03-20 12:42:00,
2013-03-20 08:52:00,29.0,8.0,29.94,NNW,336,5.0,9.0,40,0.00,,,0.00,,2013-03-20 12:52:00,
2013-03-20 09:03:00,29.0,8.0,29.95,NNW,329,4.0,9.0,40,0.00,,,0.00,,2013-03-20 13:03:00,
2013-03-20 09:12:00,29.0,8.0,29.95,NNW,329,4.0,9.0,40,0.00,,,0.00,,2013-03-20 13:12:00,
2013-03-20 09:22:00,29.0,8.0,29.94,NW,317,4.0,10.0,40,0.00,,,0.00,,2013-03-20 13:22:00,
2013-03-20 09:32:00,30.0,9.0,29.95,NNW,345,1.0,6.0,40,0.00,,,0.00,,2013-03-20 13:32:00,
2013-03-20 09:42:00,30.0,9.0,29.95,NNW,345,1.0,6.0,40,0.00,,,0.00,,2013-03-20 13:42:00,
2013-03-20 09:53:00,31.0,8.0,29.95,NNW,334,3.0,7.0,37,0.00,,,0.00,,2013-03-20 13:53:00,
2013-03-20 10:03:00,32.0,9.0,29.95,NNW,344,0.0,8.0,37,0.00,,,0.00,,2013-03-20 14:03:00,
2013-03-20 10:12:00,32.0,9.0,29.95,NNW,344,0.0,8.0,37,0.00,,,0.00,,2013-03-20 14:12:00,
2013-03-20 10:23:00,33.0,7.0,29.96,NNW,338,1.0,6.0,33,0.00,,,0.00,,2013-03-20 14:23:00,
2013-03-20 10:34:00,33.0,8.0,29.96,NNW,343,0.0,8.0,35,0.00,,,0.00,,2013-03-20 14:34:00,
2013-03-20 10:42:00,33.0,8.0,29.96,NNW,343,0.0,8.0,35,0.00,,,0.00,,2013-03-20 14:42:00,
2013-03-20 10:53:00,35.0,9.0,29.96,NNW,346,1.0,8.0,33,0.00,,,0.00,,2013-03-20 14:53:00,
2013-03-20 11:02:00,36.0,9.0,29.96,WNW,289,0.0,6.0,32,0.00,,,0.00,,2013-03-20 15:02:00,
2013-03-20 11:12:00,36.0,8.0,29.96,WNW,294,1.0,4.0,30,0.00,,,0.00,,2013-03-20 15:12:00,
2013-03-20 11:22:00,36.0,8.0,29.96,WNW,294,1.0,4.0,30,0.00,,,0.00,,2013-03-20 15:22:00,
2013-03-20 11:33:00,37.0,9.0,29.96,WNW,290,1.0,7.0,31,0.00,,,0.00,,2013-03-20 15:33:00,
2013-03-20 11:43:00,37.0,9.0,29.96,WNW,290,1.0,7.0,31,0.00,,,0.00,,2013-03-20 15:43:00,
2013-03-20 11:53:00,39.0,9.0,29.96,WNW,286,1.0,6.0,29,0.00,,,0.00,,2013-03-20 15:53:00,
2013-03-20 12:03:00,39.0,10.0,29.95,WSW,248,2.0,8.0,30,0.00,,,0.00,,2013-03-20 16:03:00,
2013-03-20 12:13:00,39.0,10.0,29.95,WSW,248,2.0,8.0,30,0.00,,,0.00,,2013-03-20 16:13:00,
2013-03-20 12:23:00,41.0,11.0,29.95,West,279,2.0,7.0,29,0.00,,,0.00,,2013-03-20 16:23:00,
2013-03-20 12:33:00,43.0,12.0,29.94,WSW,244,3.0,10.0,28,0.00,,,0.00,,2013-03-20 16:33:00,
2013-03-20 12:43:00,43.0,12.0,29.94,WSW,244,3.0,10.0,28,0.00,,,0.00,,2013-03-20 16:43:00,
2013-03-20 12:53:00,43.0,12.0,29.93,WNW,286,0.0,7.0,28,0.00,,,0.00,,2013-03-20 16:53:00,
2013-03-20 13:03:00,45.0,15.0,29.91,NNW,337,3.0,9.0,29,0.00,,,0.00,,2013-03-20 17:03:00,
2013-03-20 13:12:00,45.0,15.0,29.91,NNW,337,3.0,9.0,29,0.00,,,0.00,,2013-03-20 17:12:00,
2013-03-20 13:22:00,47.0,14.0,29.91,NW,316,1.0,9.0,26,0.00,,,0.00,,2013-03-20 17:22:00,
2013-03-20 13:32:00,47.0,16.0,29.90,NNW,343,3.0,13.0,28,0.00,,,0.00,,2013-03-20 17:32:00,
2013-03-20 13:42:00,47.0,16.0,29.90,NNW,343,3.0,13.0,28,0.00,,,0.00,,2013-03-20 17:42:00,
2013-03-20 13:53:00,46.0,13.0,29.90,WSW,257,5.0,13.0,26,0.00,,,0.00,,2013-03-20 17:53:00,
2013-03-20 14:02:00,49.0,15.0,29.89,SW,232,4.0,8.0,25,0.00,,,0.00,,2013-03-20 18:02:00,
2013-03-20 14:12:00,49.0,15.0,29.89,SW,232,4.0,8.0,25,0.00,,,0.00,,2013-03-20 18:12:00,
2013-03-20 14:22:00,46.0,14.0,29.88,West,273,2.0,11.0,27,0.00,,,0.00,,2013-03-20 18:22:00,
2013-03-20 14:33:00,47.0,10.0,29.86,WSW,240,2.0,8.0,22,0.00,,,0.00,,2013-03-20 18:33:00,
2013-03-20 14:42:00,47.0,10.0,29.86,WSW,240,2.0,8.0,22,0.00,,,0.00,,2013-03-20 18:42:00,
2013-03-20 14:53:00,49.0,12.0,29.85,WSW,248,2.0,13.0,22,0.00,,,0.00,,2013-03-20 18:53:00,
2013-03-20 15:02:00,51.0,12.0,29.84,West,265,4.0,12.0,21,0.00,,,0.00,,2013-03-20 19:02:00,
2013-03-20 15:12:00,51.0,12.0,29.84,West,265,4.0,12.0,21,0.00,,,0.00,,2013-03-20 19:12:00,
2013-03-20 15:22:00,51.0,12.0,29.82,SW,231,4.0,7.0,21,0.00,,,0.00,,2013-03-20 19:22:00,
2013-03-20 15:32:00,50.0,13.0,29.81,West,259,1.0,8.0,22,0.00,,,0.00,,2013-03-20 19:32:00,
2013-03-20 15:42:00,50.0,13.0,29.81,West,259,1.0,8.0,22,0.00,,,0.00,,2013-03-20 19:42:00,
2013-03-20 15:53:00,49.0,12.0,29.80,WSW,242,1.0,7.0,22,0.00,,,0.00,,2013-03-20 19:53:00,
2013-03-20 16:02:00,48.0,11.0,29.79,South,187,0.0,6.0,22,0.00,,,0.00,,2013-03-20 20:02:00,
2013-03-20 16:13:00,48.0,11.0,29.79,South,187,0.0,6.0,22,0.00,,,0.00,,2013-03-20 20:13:00,
2013-03-20 16:22:00,48.0,12.0,29.78,SW,214,3.0,7.0,23,0.00,,,0.00,,2013-03-20 20:22:00,
2013-03-20 16:32:00,50.0,13.0,29.78,SW,217,1.0,10.0,22,0.00,,,0.00,,2013-03-20 20:32:00,
2013-03-20 16:42:00,50.0,13.0,29.78,SW,217,1.0,10.0,22,0.00,,,0.00,,2013-03-20 20:42:00,
2013-03-20 16:53:00,49.0,14.0,29.76,NNW,340,6.0,12.0,24,0.00,,,0.00,,2013-03-20 20:53:00,
2013-03-20 17:02:00,49.0,16.0,29.77,NNW,327,2.0,10.0,26,0.00,,,0.00,,2013-03-20 21:02:00,
2013-03-20 17:12:00,49.0,16.0,29.77,NNW,327,2.0,10.0,26,0.00,,,0.00,,2013-03-20 21:12:00,
2013-03-20 17:22:00,49.0,14.0,29.77,West,276,4.0,11.0,24,0.00,,,0.00,,2013-03-20 21:22:00,
2013-03-20 17:33:00,49.0,16.0,29.76,NNW,340,3.0,10.0,26,0.00,,,0.00,,2013-03-20 21:33:00,
2013-03-20 17:42:00,49.0,16.0,29.76,NNW,340,3.0,10.0,26,0.00,,,0.00,,2013-03-20 21:42:00,
2013-03-20 17:53:00,46.0,14.0,29.75,NNW,344,1.0,8.0,27,0.00,,,0.00,,2013-03-20 21:53:00,
2013-03-20 18:03:00,47.0,13.0,29.75,NW,320,5.0,9.0,25,0.00,,,0.00,,2013-03-20 22:03:00,
2013-03-20 18:13:00,47.0,13.0,29.75,NW,320,5.0,9.0,25,0.00,,,0.00,,2013-03-20 22:13:00,
2013-03-20 18:23:00,46.0,12.0,29.75,North,11,5.0,11.0,25,0.00,,,0.00,,2013-03-20 22:23:00,
2013-03-20 18:33:00,45.0,12.0,29.74,WNW,290,2.0,9.0,26,0.00,,,0.00,,2013-03-20 22:33:00,
2013-03-20 18:42:00,45.0,12.0,29.74,WNW,290,2.0,9.0,26,0.00,,,0.00,,2013-03-20 22:42:00,
2013-03-20 18:53:00,43.0,12.0,29.74,NNW,329,2.0,11.0,28,0.00,,,0.00,,2013-03-20 22:53:00,
2013-03-20 19:02:00,42.0,12.0,29.73,NW,306,3.0,9.0,29,0.00,,,0.00,,2013-03-20 23:02:00,
2013-03-20 19:12:00,42.0,12.0,29.73,NW,306,3.0,9.0,29,0.00,,,0.00,,2013-03-20 23:12:00,
2013-03-20 19:23:00,40.0,10.0,29.73,NNW,330,1.0,8.0,29,0.00,,,0.00,,2013-03-20 23:23:00,
2013-03-20 19:32:00,39.0,12.0,29.73,NNW,346,2.0,8.0,32,0.00,,,0.00,,2013-03-20 23:32:00,
2013-03-20 19:42:00,39.0,12.0,29.73,NNW,346,2.0,8.0,32,0.00,,,0.00,,2013-03-20 23:42:00,
2013-03-20 19:53:00,38.0,11.0,29.73,WNW,288,2.0,7.0,32,0.00,,,0.00,,2013-03-20 23:53:00,
2013-03-20 20:02:00,37.0,11.0,29.72,WNW,296,6.0,11.0,33,0.00,,,0.00,,2013-03-21 00:02:00,
2013-03-20 20:13:00,37.0,11.0,29.72,WNW,296,6.0,11.0,33,0.00,,,0.00,,2013-03-21 00:13:00,
2013-03-20 20:23:00,37.0,11.0,29.72,WNW,292,6.0,12.0,34,0.00,,,0.00,,2013-03-21 00:23:00,
2013-03-20 20:33:00,36.0,12.0,29.72,NW,306,6.0,11.0,37,0.00,,,0.00,,2013-03-21 00:33:00,
2013-03-20 20:42:00,36.0,12.0,29.72,NW,306,6.0,11.0,37,0.00,,,0.00,,2013-03-21 00:42:00,
2013-03-20 20:53:00,36.0,13.0,29.73,WNW,298,5.0,12.0,38,0.00,,,0.00,,2013-03-21 00:53:00,
2013-03-20 21:02:00,36.0,13.0,29.73,WNW,294,4.0,10.0,39,0.00,,,0.00,,2013-03-21 01:02:00,
2013-03-20 21:12:00,36.0,13.0,29.73,WNW,294,4.0,10.0,39,0.00,,,0.00,,2013-03-21 01:12:00,
2013-03-20 21:22:00,36.0,15.0,29.73,NW,326,5.0,10.0,41,0.00,,,0.00,,2013-03-21 01:22:00,
2013-03-20 21:33:00,35.0,15.0,29.72,WNW,300,6.0,11.0,43,0.00,,,0.00,,2013-03-21 01:33:00,
2013-03-20 21:42:00,35.0,15.0,29.72,WNW,300,6.0,11.0,43,0.00,,,0.00,,2013-03-21 01:42:00,
2013-03-20 21:53:00,35.0,16.0,29.72,WNW,297,5.0,10.0,46,0.00,,,0.00,,2013-03-21 01:53:00,
2013-03-20 22:02:00,35.0,17.0,29.72,WNW,297,5.0,9.0,47,0.00,,,0.00,,2013-03-21 02:02:00,
2013-03-20 22:13:00,35.0,17.0,29.72,WNW,297,5.0,9.0,47,0.00,,,0.00,,2013-03-21 02:13:00,
2013-03-20 22:22:00,34.0,17.0,29.72,NW,324,6.0,10.0,49,0.00,,,0.00,,2013-03-21 02:22:00,
2013-03-20 22:33:00,33.0,20.0,29.71,NW,317,6.0,11.0,58,0.00,,,0.00,,2013-03-21 02:33:00,
2013-03-20 22:42:00,33.0,20.0,29.71,NW,317,6.0,11.0,58,0.00,,,0.00,,2013-03-21 02:42:00,
2013-03-20 22:52:00,33.0,20.0,29.71,NW,317,6.0,11.0,58,0.00,,,0.00,,2013-03-21 02:52:00,
2013-03-20 23:02:00,31.0,24.0,29.72,North,360,5.0,13.0,75,0.00,,,0.00,,2013-03-21 03:02:00,
2013-03-20 23:12:00,31.0,24.0,29.72,North,360,5.0,13.0,75,0.00,,,0.00,,2013-03-21 03:12:00,
2013-03-20 23:22:00,30.0,26.0,29.73,NW,311,5.0,10.0,85,0.00,,,0.00,,2013-03-21 03:22:00,
2013-03-20 23:33:00,29.0,26.0,29.72,NW,319,6.0,9.0,88,0.00,,,0.00,,2013-03-21 03:33:00,
2013-03-20 23:43:00,29.0,26.0,29.72,NW,319,6.0,9.0,88,0.00,,,0.00,,2013-03-21 03:43:00,
2013-03-20 23:53:00,28.0,25.0,29.71,West,277,7.0,13.0,90,0.01,,,0.01,,2013-03-21 03:53:00,